createdAt,value
2022-07-28T00:00:53.096Z,1.48
2022-07-28T00:03:19.862Z,1.30
2022-07-28T00:05:47.283Z,1.20
2022-07-28T00:08:16.731Z,1.20
2022-07-28T00:10:43.479Z,1.00
2022-07-28T00:13:10.202Z,1.20
2022-07-28T00:15:37.389Z,1.40
2022-07-28T00:18:04.128Z,1.10
2022-07-28T00:20:31.170Z,1.13
2022-07-28T00:22:57.916Z,1.38
2022-07-28T00:25:24.761Z,1.10
2022-07-28T00:27:51.529Z,1.30
2022-07-28T00:30:18.178Z,1.10
2022-07-28T00:32:45.257Z,1.10
2022-07-28T00:35:12.561Z,1.15
2022-07-28T00:37:41.836Z,1.35
2022-07-28T00:40:09.363Z,1.30
2022-07-28T00:42:36.087Z,1.02
2022-07-28T00:45:03.292Z,1.20
2022-07-28T00:47:33.830Z,1.35
2022-07-28T00:50:02.148Z,1.30
2022-07-28T00:52:28.969Z,1.08
2022-07-28T00:54:56.869Z,1.33
2022-07-28T00:57:23.680Z,1.10
2022-07-28T00:59:50.415Z,1.20
2022-07-28T01:02:17.419Z,1.30
2022-07-28T01:04:44.282Z,1.10
2022-07-28T01:07:13.569Z,1.10
2022-07-28T01:09:40.205Z,1.20
2022-07-28T01:12:44.360Z,1.38
2022-07-28T01:15:42.581Z,1.27
2022-07-28T01:18:17.303Z,1.30
2022-07-28T01:21:08.257Z,1.20
2022-07-28T01:23:50.059Z,1.30
2022-07-28T01:26:28.795Z,1.10
2022-07-28T01:29:04.070Z,1.30
2022-07-28T01:31:39.670Z,1.33
2022-07-28T01:34:10.985Z,1.20
2022-07-28T01:36:52.286Z,1.20
2022-07-28T01:39:20.893Z,1.20
2022-07-28T01:41:49.875Z,1.08
2022-07-28T01:44:20.350Z,1.30
2022-07-28T01:46:48.901Z,1.23
2022-07-28T01:49:18.549Z,1.30
2022-07-28T01:51:46.911Z,1.25
2022-07-28T01:54:15.834Z,1.20
2022-07-28T01:56:43.830Z,1.10
2022-07-28T01:59:12.573Z,1.30
2022-07-28T02:01:44.356Z,1.20
2022-07-28T02:04:12.645Z,1.10
2022-07-28T02:06:42.435Z,1.30
2022-07-28T02:09:10.598Z,1.40
2022-07-28T02:11:40.570Z,1.35
2022-07-28T02:14:17.105Z,1.10
2022-07-28T02:17:02.194Z,1.40
2022-07-28T02:19:30.219Z,1.38
2022-07-28T02:21:57.086Z,1.40
2022-07-28T02:24:28.560Z,1.00
2022-07-28T02:27:11.945Z,1.50
2022-07-28T02:29:51.244Z,1.50
2022-07-28T02:32:33.634Z,1.40
2022-07-28T02:35:09.546Z,1.15
2022-07-28T02:37:40.213Z,1.38
2022-07-28T02:40:12.141Z,1.25
2022-07-28T02:42:40.758Z,1.25
2022-07-28T02:45:10.204Z,1.30
2022-07-28T02:47:44.240Z,1.40
2022-07-28T02:50:12.943Z,1.40
2022-07-28T02:52:41.850Z,1.45
2022-07-28T02:55:11.226Z,1.35
2022-07-28T02:57:40.940Z,1.40
2022-07-28T03:00:08.534Z,1.20
2022-07-28T03:02:36.849Z,1.60
2022-07-28T03:05:11.207Z,1.48
2022-07-28T03:07:43.803Z,1.20
2022-07-28T03:10:34.282Z,1.40
2022-07-28T03:13:07.164Z,1.40
2022-07-28T03:15:35.627Z,1.52
2022-07-28T03:18:04.434Z,1.58
2022-07-28T03:20:31.480Z,1.38
2022-07-28T03:22:59.380Z,1.40
2022-07-28T03:25:43.285Z,1.38
2022-07-28T03:28:15.230Z,1.80
2022-07-28T03:30:45.527Z,1.50
2022-07-28T03:33:12.814Z,1.48
2022-07-28T03:35:43.747Z,2.10
2022-07-28T03:38:23.933Z,1.58
2022-07-28T03:40:55.096Z,1.67
2022-07-28T03:43:25.185Z,1.60
2022-07-28T03:45:52.075Z,1.80
2022-07-28T03:48:18.791Z,1.60
2022-07-28T03:50:45.539Z,1.70
2022-07-28T03:53:30.382Z,1.77
2022-07-28T03:55:58.201Z,1.80
2022-07-28T03:58:28.896Z,1.92
2022-07-28T04:00:57.086Z,1.80
2022-07-28T04:03:42.872Z,1.90
2022-07-28T04:06:15.429Z,1.67
2022-07-28T04:08:43.623Z,1.83
2022-07-28T04:11:10.310Z,1.85
2022-07-28T04:13:37.533Z,1.90
2022-07-28T04:16:07.197Z,1.77
2022-07-28T04:18:34.324Z,1.90
2022-07-28T04:21:01.131Z,1.85
2022-07-28T04:23:28.211Z,2.00
2022-07-28T04:25:55.451Z,1.40
2022-07-28T04:28:22.422Z,1.73
2022-07-28T04:30:49.124Z,1.90
2022-07-28T04:33:16.047Z,2.00
2022-07-28T04:35:42.723Z,1.75
2022-07-28T04:38:09.442Z,2.15
2022-07-28T04:40:36.258Z,1.67
2022-07-28T04:43:04.154Z,1.70
2022-07-28T04:45:31.123Z,1.90
2022-07-28T04:47:57.927Z,2.00
2022-07-28T04:50:25.007Z,1.83
2022-07-28T04:52:51.914Z,1.65
2022-07-28T04:55:18.771Z,1.85
2022-07-28T04:57:45.642Z,2.13
2022-07-28T05:00:15.080Z,2.08
2022-07-28T05:02:43.580Z,1.77
2022-07-28T05:05:11.085Z,1.70
2022-07-28T05:07:39.000Z,1.73
2022-07-28T05:10:07.679Z,1.70
2022-07-28T05:12:34.358Z,1.95
2022-07-28T05:15:01.179Z,1.90
2022-07-28T05:17:27.885Z,2.00
2022-07-28T05:19:54.733Z,1.98
2022-07-28T05:22:21.415Z,1.70
2022-07-28T05:24:48.122Z,1.77
2022-07-28T05:27:15.006Z,2.03
2022-07-28T05:29:47.082Z,2.30
2022-07-28T05:32:16.599Z,1.95
2022-07-28T05:34:45.488Z,1.60
2022-07-28T05:37:12.419Z,1.92
2022-07-28T05:39:39.450Z,1.90
2022-07-28T05:42:06.366Z,2.50
2022-07-28T05:44:37.833Z,1.80
2022-07-28T05:47:05.689Z,1.80
2022-07-28T05:49:32.559Z,1.70
2022-07-28T05:51:59.390Z,1.67
2022-07-28T05:54:26.209Z,1.60
2022-07-28T05:56:53.170Z,1.92
2022-07-28T05:59:19.901Z,2.08
2022-07-28T06:01:46.914Z,2.10
2022-07-28T06:04:25.671Z,1.70
2022-07-28T06:06:54.972Z,1.40
2022-07-28T06:09:21.737Z,1.60
2022-07-28T06:11:50.728Z,1.98
2022-07-28T06:14:18.816Z,1.80
2022-07-28T06:16:51.240Z,1.90
2022-07-28T06:19:19.210Z,1.65
2022-07-28T06:21:46.024Z,1.80
2022-07-28T06:24:13.111Z,1.40
2022-07-28T06:26:44.261Z,1.48
2022-07-28T06:29:14.266Z,1.58
2022-07-28T06:31:41.094Z,1.70
2022-07-28T06:34:09.822Z,1.45
2022-07-28T06:36:36.598Z,1.60
2022-07-28T06:39:03.490Z,1.80
2022-07-28T06:41:30.213Z,2.10
2022-07-28T06:43:57.018Z,1.77
2022-07-28T06:46:23.840Z,1.40
2022-07-28T06:48:50.743Z,1.25
2022-07-28T06:51:20.417Z,1.55
2022-07-28T06:53:48.703Z,1.42
2022-07-28T06:56:16.329Z,1.25
2022-07-28T06:58:46.498Z,1.42
2022-07-28T07:01:17.585Z,1.17
2022-07-28T07:03:54.820Z,5.78
2022-07-28T07:06:21.549Z,1.63
2022-07-28T07:08:48.547Z,1.77
2022-07-28T07:11:15.398Z,1.85
2022-07-28T07:13:42.127Z,2.17
2022-07-28T07:16:11.880Z,1.40
2022-07-28T07:18:38.697Z,1.58
2022-07-28T07:21:05.391Z,2.42
2022-07-28T07:23:32.241Z,1.42
2022-07-28T07:25:59.178Z,1.50
2022-07-28T07:28:25.936Z,1.35
2022-07-28T07:30:53.034Z,1.30
2022-07-28T07:33:23.227Z,1.35
2022-07-28T07:35:49.915Z,1.50
2022-07-28T07:38:17.755Z,1.42
2022-07-28T07:40:44.627Z,1.40
2022-07-28T07:43:11.389Z,1.60
2022-07-28T07:45:40.267Z,1.17
2022-07-28T07:48:07.534Z,1.48
2022-07-28T07:50:35.190Z,1.05
2022-07-28T07:53:02.075Z,1.40
2022-07-28T07:55:34.593Z,1.27
2022-07-28T07:58:05.104Z,1.30
2022-07-28T08:00:31.964Z,1.30
2022-07-28T08:02:59.180Z,1.17
2022-07-28T08:05:35.754Z,1.20
2022-07-28T08:08:05.301Z,1.20
2022-07-28T08:10:33.279Z,1.30
2022-07-28T08:13:00.014Z,1.02
2022-07-28T08:15:26.811Z,1.23
2022-07-28T08:17:53.544Z,1.20
2022-07-28T08:20:20.492Z,1.20
2022-07-28T08:22:55.284Z,1.35
2022-07-28T08:25:22.994Z,1.50
2022-07-28T08:27:50.150Z,1.17
2022-07-28T08:30:23.118Z,1.50
2022-07-28T08:32:57.061Z,1.10
2022-07-28T08:35:34.611Z,1.20
2022-07-28T08:38:03.909Z,1.25
2022-07-28T08:40:32.679Z,1.08
2022-07-28T08:43:14.666Z,1.20
2022-07-28T08:45:44.549Z,1.30
2022-07-28T08:48:12.354Z,1.10
2022-07-28T08:50:39.650Z,1.30
2022-07-28T08:53:08.188Z,1.40
2022-07-28T08:55:36.233Z,1.30
2022-07-28T08:58:04.272Z,1.52
2022-07-28T09:00:31.643Z,1.00
2022-07-28T09:03:03.504Z,1.40
2022-07-28T09:05:31.126Z,1.30
2022-07-28T09:07:58.722Z,1.38
2022-07-28T09:10:25.579Z,1.38
2022-07-28T09:12:52.519Z,1.35
2022-07-28T09:15:19.533Z,1.10
2022-07-28T09:17:46.376Z,1.30
2022-07-28T09:20:14.025Z,1.40
2022-07-28T09:23:01.948Z,1.30
2022-07-28T09:25:30.058Z,1.33
2022-07-28T09:28:05.198Z,1.33
2022-07-28T09:30:34.178Z,1.02
2022-07-28T09:33:42.060Z,1.42
2022-07-28T09:36:02.304Z,1.25
2022-07-28T09:38:40.541Z,1.38
2022-07-28T09:41:07.762Z,1.27
2022-07-28T09:43:43.498Z,1.70
2022-07-28T09:46:15.283Z,1.40
2022-07-28T09:48:59.222Z,1.30
2022-07-28T09:51:31.203Z,1.20
2022-07-28T09:54:13.831Z,1.40
2022-07-28T09:56:45.875Z,1.50
2022-07-28T09:59:14.594Z,1.50
2022-07-28T10:02:02.182Z,1.35
2022-07-28T10:04:41.222Z,1.55
2022-07-28T10:07:14.339Z,1.30
2022-07-28T10:09:41.919Z,1.13
2022-07-28T10:12:22.734Z,1.42
2022-07-28T10:14:52.027Z,1.33
2022-07-28T10:17:29.951Z,1.20
2022-07-28T10:19:58.762Z,1.35
2022-07-28T10:22:42.804Z,1.13
2022-07-28T10:25:12.798Z,1.48
2022-07-28T10:27:46.206Z,1.40
2022-07-28T10:30:13.503Z,1.48
2022-07-28T10:32:43.143Z,1.40
2022-07-28T10:35:15.896Z,1.67
2022-07-28T10:37:59.590Z,1.13
2022-07-28T10:40:30.350Z,1.35
2022-07-28T10:42:58.752Z,1.23
2022-07-28T10:45:48.088Z,1.58
2022-07-28T10:48:15.494Z,1.67
2022-07-28T10:50:43.174Z,1.48
2022-07-28T10:53:12.201Z,1.77
2022-07-28T10:55:59.847Z,1.90
2022-07-28T10:58:29.422Z,1.40
2022-07-28T11:00:59.902Z,1.48
2022-07-28T11:03:47.264Z,1.70
2022-07-28T11:06:24.299Z,1.33
2022-07-28T11:08:53.744Z,1.20
2022-07-28T11:11:52.260Z,1.35
2022-07-28T11:14:22.950Z,1.45
2022-07-28T11:17:11.561Z,1.23
2022-07-28T11:20:00.788Z,1.40
2022-07-28T11:22:33.453Z,1.52
2022-07-28T11:25:18.819Z,1.42
2022-07-28T11:27:51.342Z,1.02
2022-07-28T11:30:29.178Z,1.33
2022-07-28T11:32:57.036Z,1.70
2022-07-28T11:35:25.113Z,1.63
2022-07-28T11:38:00.917Z,1.35
2022-07-28T11:40:31.287Z,1.60
2022-07-28T11:43:36.007Z,1.27
2022-07-28T11:46:07.075Z,1.50
2022-07-28T11:48:37.514Z,1.38
2022-07-28T11:51:04.323Z,1.38
2022-07-28T11:53:43.941Z,1.30
2022-07-28T11:56:13.877Z,1.20
2022-07-28T11:58:41.967Z,1.20
2022-07-28T12:01:17.375Z,1.45
2022-07-28T12:03:55.863Z,1.50
2022-07-28T12:06:36.088Z,1.75
2022-07-28T12:09:10.546Z,1.60
2022-07-28T12:11:39.063Z,1.45
2022-07-28T12:14:14.802Z,1.77
2022-07-28T12:16:44.736Z,1.60
2022-07-28T12:19:15.884Z,1.85
2022-07-28T12:21:52.917Z,1.30
2022-07-28T12:24:27.577Z,1.50
2022-07-28T12:26:55.055Z,1.63
2022-07-28T12:29:21.916Z,1.60
2022-07-28T12:32:00.512Z,1.67
2022-07-28T12:34:29.292Z,1.58
2022-07-28T12:36:59.003Z,1.50
2022-07-28T12:39:26.426Z,1.70
2022-07-28T12:42:05.286Z,1.70
2022-07-28T12:44:36.732Z,1.63
2022-07-28T12:47:09.025Z,1.92
2022-07-28T12:49:37.539Z,1.60
2022-07-28T12:52:24.810Z,1.50
2022-07-28T12:54:55.545Z,2.03
2022-07-28T12:57:48.642Z,1.70
2022-07-28T13:00:19.684Z,1.85
2022-07-28T13:02:47.306Z,1.75
2022-07-28T13:05:28.109Z,1.65
2022-07-28T13:08:05.301Z,1.77
2022-07-28T13:10:33.338Z,1.98
2022-07-28T13:13:02.303Z,2.00
2022-07-28T13:15:29.151Z,2.08
2022-07-28T13:17:57.419Z,2.25
2022-07-28T13:20:24.823Z,1.50
2022-07-28T13:22:52.770Z,1.60
2022-07-28T13:25:20.843Z,1.77
2022-07-28T13:27:52.289Z,1.92
2022-07-28T13:30:21.864Z,1.75
2022-07-28T13:32:49.795Z,1.88
2022-07-28T13:35:18.890Z,2.22
2022-07-28T13:37:46.275Z,2.53
2022-07-28T13:40:13.257Z,1.85
2022-07-28T13:42:40.184Z,1.73
2022-07-28T13:45:21.443Z,2.22
2022-07-28T13:47:52.381Z,2.03
2022-07-28T13:50:20.873Z,1.70
2022-07-28T13:52:48.271Z,1.75
2022-07-28T13:55:17.755Z,1.67
2022-07-28T13:57:49.119Z,1.60
2022-07-28T14:00:18.241Z,1.73
2022-07-28T14:02:47.299Z,1.63
2022-07-28T14:05:14.622Z,1.58
2022-07-28T14:07:42.873Z,1.85
2022-07-28T14:10:15.697Z,1.98
2022-07-28T14:12:42.478Z,1.77
2022-07-28T14:15:12.054Z,1.80
2022-07-28T14:17:43.364Z,2.33
2022-07-28T14:22:39.266Z,1.80
2022-07-28T14:25:06.406Z,2.08
2022-07-28T14:27:33.539Z,1.60
2022-07-28T14:30:03.270Z,1.80
2022-07-28T14:32:31.759Z,2.00
2022-07-28T14:34:58.641Z,1.85
2022-07-28T14:37:25.424Z,1.90
2022-07-28T14:39:52.152Z,2.15
2022-07-28T14:42:19.384Z,2.00
2022-07-28T14:44:46.152Z,2.08
2022-07-28T14:47:12.982Z,2.03
2022-07-28T14:49:57.489Z,2.03
2022-07-28T14:52:26.719Z,2.42
2022-07-28T14:54:54.732Z,2.53
2022-07-28T14:57:45.905Z,2.22
2022-07-28T15:00:10.299Z,2.40
2022-07-28T15:02:37.135Z,2.67
2022-07-28T15:05:04.416Z,2.50
2022-07-28T15:07:31.328Z,2.63
2022-07-28T15:09:58.107Z,2.42
2022-07-28T15:12:24.875Z,2.15
2022-07-28T15:14:51.644Z,2.10
2022-07-28T15:17:19.838Z,2.10
2022-07-28T15:19:47.238Z,2.58
2022-07-28T15:22:14.198Z,2.30
2022-07-28T15:24:42.290Z,2.53
2022-07-28T15:27:12.694Z,1.88
2022-07-28T15:29:39.671Z,1.80
2022-07-28T15:32:09.644Z,2.47
2022-07-28T15:34:39.528Z,2.22
2022-07-28T15:37:07.375Z,2.53
2022-07-28T15:39:37.960Z,2.10
2022-07-28T15:42:06.435Z,1.87
2022-07-28T15:44:33.146Z,2.95
2022-07-28T15:46:59.899Z,2.35
2022-07-28T15:49:30.469Z,2.10
2022-07-28T15:51:57.889Z,2.20
2022-07-28T15:54:25.036Z,2.45
2022-07-28T15:56:51.971Z,2.20
2022-07-28T15:59:18.937Z,2.63
2022-07-28T16:01:45.899Z,2.45
2022-07-28T16:04:13.038Z,2.45
2022-07-28T16:06:58.465Z,2.63
2022-07-28T16:09:25.158Z,2.92
2022-07-28T16:12:13.013Z,2.30
2022-07-28T16:14:42.010Z,2.78
2022-07-28T16:17:10.064Z,3.05
2022-07-28T16:19:48.884Z,2.30
2022-07-28T16:22:17.799Z,2.72
2022-07-28T16:24:45.496Z,2.53
2022-07-28T16:27:12.315Z,2.80
2022-07-28T16:29:39.053Z,2.20
2022-07-28T16:32:05.909Z,3.22
2022-07-28T16:34:32.684Z,3.40
2022-07-28T16:36:59.661Z,2.78
2022-07-28T16:39:26.377Z,2.50
2022-07-28T16:41:53.258Z,2.63
2022-07-28T16:44:20.723Z,2.65
2022-07-28T16:46:47.903Z,2.25
2022-07-28T16:49:16.274Z,4.30
2022-07-28T16:51:43.288Z,2.20
2022-07-28T16:54:10.111Z,3.38
2022-07-28T16:56:36.796Z,2.80
2022-07-28T16:59:03.967Z,3.38
2022-07-28T17:01:30.888Z,3.05
2022-07-28T17:03:57.855Z,3.45
2022-07-28T17:06:25.259Z,3.17
2022-07-28T17:08:51.975Z,2.90
2022-07-28T17:11:18.778Z,4.00
2022-07-28T17:13:45.725Z,3.17
2022-07-28T17:16:13.292Z,4.10
2022-07-28T17:18:40.350Z,2.85
2022-07-28T17:21:07.369Z,2.40
2022-07-28T17:23:36.398Z,2.63
2022-07-28T17:28:54.077Z,2.42
2022-07-28T17:31:21.090Z,2.97
2022-07-28T17:33:47.916Z,3.38
2022-07-28T17:36:16.006Z,2.95
2022-07-28T17:38:43.195Z,3.15
2022-07-28T17:41:10.129Z,3.75
2022-07-28T17:43:41.029Z,3.70
2022-07-28T17:46:10.861Z,3.33
2022-07-28T17:48:38.972Z,3.17
2022-07-28T17:51:06.007Z,3.20
2022-07-28T17:53:33.730Z,6.85
2022-07-28T17:56:06.982Z,7.90
2022-07-28T17:58:36.246Z,7.47
2022-07-28T18:01:10.305Z,5.93
2022-07-28T18:03:58.692Z,10.15
2022-07-28T18:06:35.603Z,5.03
2022-07-28T18:09:10.113Z,6.63
2022-07-28T18:11:57.192Z,4.70
2022-07-28T18:14:26.550Z,6.70
2022-07-28T18:16:53.267Z,5.30
2022-07-28T18:19:20.002Z,7.18
2022-07-28T18:21:46.694Z,6.57
2022-07-28T18:24:13.811Z,4.53
2022-07-28T18:26:40.820Z,5.38
2022-07-28T18:29:07.605Z,7.43
2022-07-28T18:31:34.359Z,6.78
2022-07-28T18:34:01.140Z,6.97
2022-07-28T18:36:27.976Z,5.78
2022-07-28T18:38:54.654Z,6.40
2022-07-28T18:41:21.405Z,4.90
2022-07-28T18:43:48.101Z,4.40
2022-07-28T18:46:14.953Z,5.60
2022-07-28T18:48:41.872Z,7.20
2022-07-28T18:51:08.594Z,6.43
2022-07-28T18:53:36.459Z,6.05
2022-07-28T18:56:03.274Z,4.68
2022-07-28T18:58:29.943Z,6.13
2022-07-28T19:00:56.902Z,5.72
2022-07-28T19:03:23.649Z,4.20
2022-07-28T19:05:50.965Z,3.72
2022-07-28T19:08:17.729Z,5.60
2022-07-28T19:10:44.445Z,5.68
2022-07-28T19:13:12.803Z,6.97
2022-07-28T19:15:41.638Z,8.25
2022-07-28T19:18:10.699Z,5.00
2022-07-28T19:20:44.508Z,7.22
2022-07-28T19:23:11.453Z,5.68
2022-07-28T19:25:41.409Z,6.65
2022-07-28T19:28:08.407Z,5.20
2022-07-28T19:30:35.296Z,5.32
2022-07-28T19:33:03.044Z,6.80
2022-07-28T19:35:30.331Z,7.13
2022-07-28T19:38:00.264Z,4.82
2022-07-28T19:40:29.798Z,6.68
2022-07-28T19:42:56.845Z,7.78
2022-07-28T19:45:24.135Z,7.07
2022-07-28T19:47:51.379Z,5.55
2022-07-28T19:50:18.477Z,5.28
2022-07-28T19:52:45.170Z,6.18
2022-07-28T19:55:12.755Z,6.85
2022-07-28T19:57:42.245Z,7.68
2022-07-28T20:00:10.290Z,5.45
2022-07-28T20:02:38.088Z,6.10
2022-07-28T20:05:05.921Z,5.97
2022-07-28T20:07:32.689Z,5.65
2022-07-28T20:10:01.121Z,8.25
2022-07-28T20:12:31.607Z,5.88
2022-07-28T20:15:03.090Z,5.70
2022-07-28T20:17:38.067Z,8.35
2022-07-28T20:20:11.753Z,8.43
2022-07-28T20:22:40.230Z,7.40
2022-07-28T20:25:09.316Z,8.43
2022-07-28T20:27:40.531Z,5.88
2022-07-28T20:30:12.998Z,5.32
2022-07-28T20:32:42.147Z,5.88
2022-07-28T20:35:10.263Z,6.22
2022-07-28T20:37:37.910Z,5.25
2022-07-28T20:40:06.665Z,8.13
2022-07-28T20:42:33.576Z,8.52
2022-07-28T20:45:00.236Z,5.82
2022-07-28T20:47:28.230Z,6.32
2022-07-28T20:49:55.655Z,5.38
2022-07-28T20:52:22.539Z,4.28
2022-07-28T20:54:53.998Z,5.68
2022-07-28T20:57:21.617Z,4.68
2022-07-28T20:59:49.126Z,7.22
2022-07-28T21:02:16.198Z,5.45
2022-07-28T21:04:43.629Z,6.45
2022-07-28T21:07:10.984Z,4.47
2022-07-28T21:09:39.644Z,4.97
2022-07-28T21:12:09.480Z,4.60
2022-07-28T21:14:36.158Z,8.02
2022-07-28T21:17:02.909Z,6.45
2022-07-28T21:19:32.542Z,8.55
2022-07-28T21:21:59.437Z,5.80
2022-07-28T21:24:26.436Z,8.50
2022-07-28T21:26:53.645Z,6.25
2022-07-28T21:32:04.788Z,5.85
2022-07-28T21:34:35.623Z,4.38
2022-07-28T21:37:04.773Z,6.03
2022-07-28T21:39:32.001Z,5.65
2022-07-28T21:41:59.014Z,4.97
2022-07-28T21:44:25.662Z,4.78
2022-07-28T21:46:55.380Z,5.68
2022-07-28T21:49:22.113Z,5.75
2022-07-28T21:51:48.886Z,4.10
2022-07-28T21:54:15.907Z,4.97
2022-07-28T21:56:42.923Z,6.32
2022-07-28T21:59:09.778Z,6.07
2022-07-28T22:01:36.651Z,5.60
2022-07-28T22:04:03.719Z,3.20
2022-07-28T22:06:30.649Z,3.53
2022-07-28T22:08:57.372Z,4.82
2022-07-28T22:11:24.104Z,4.45
2022-07-28T22:13:50.840Z,4.75
2022-07-28T22:16:17.714Z,5.28
2022-07-28T22:18:44.522Z,4.15
2022-07-28T22:21:11.267Z,3.95
2022-07-28T22:23:38.083Z,4.60
2022-07-28T22:26:04.799Z,6.07
2022-07-28T22:28:31.512Z,4.13
2022-07-28T22:31:09.319Z,4.22
2022-07-28T22:33:40.406Z,5.03
2022-07-28T22:36:09.080Z,4.53
2022-07-28T22:38:36.187Z,5.32
2022-07-28T22:41:02.954Z,6.40
2022-07-28T22:43:32.575Z,4.68
2022-07-28T22:45:59.458Z,4.18
2022-07-28T22:48:26.361Z,4.20
2022-07-28T22:50:53.173Z,5.13
2022-07-28T22:53:19.890Z,4.55
2022-07-28T22:58:30.796Z,5.32
2022-07-28T23:00:58.382Z,6.28
2022-07-28T23:03:25.923Z,5.03
2022-07-28T23:06:02.195Z,5.05
2022-07-28T23:08:28.973Z,6.45
2022-07-28T23:10:55.780Z,5.22
2022-07-28T23:13:22.850Z,5.13
2022-07-28T23:15:50.605Z,5.60
2022-07-28T23:18:17.467Z,4.85
2022-07-28T23:20:45.233Z,5.05
2022-07-28T23:23:14.474Z,8.10
2022-07-28T23:25:42.976Z,4.53
2022-07-28T23:28:10.499Z,5.10
2022-07-28T23:30:37.870Z,5.38
2022-07-28T23:33:05.643Z,5.38
2022-07-28T23:35:32.686Z,4.13
2022-07-28T23:37:59.427Z,4.95
2022-07-28T23:40:26.317Z,4.95
2022-07-28T23:42:53.032Z,4.20
2022-07-28T23:45:19.894Z,5.03
2022-07-28T23:47:46.762Z,5.32
2022-07-28T23:50:13.662Z,5.68
2022-07-28T23:52:40.479Z,5.43
2022-07-28T23:55:07.959Z,5.00
2022-07-28T23:57:34.809Z,4.82
